Time,TemperatureF,DewpointF,PressureIn,WindDirection,WindDirectionDegrees,WindSpeedMPH,WindSpeedGustMPH,Humidity,HourlyPrecipIn,Conditions,Clouds,dailyrainin,SolarRadiationWatts/m^2,SoftwareType,DateUTC
2013-08-20 00:04:00,82.7,76.0,30.02,ESE,103,2.0,4.0,81,0.00,,,0.00,0,weatherlink.com 1.10,2013-08-20 04:04:00,
2013-08-20 00:19:00,82.8,76.0,30.02,ESE,116,0.0,2.0,81,0.00,,,0.00,0,weatherlink.com 1.10,2013-08-20 04:19:00,
2013-08-20 00:34:00,82.5,76.0,30.02,ESE,115,1.0,2.0,81,0.00,,,0.00,0,weatherlink.com 1.10,2013-08-20 04:34:00,
2013-08-20 00:49:00,82.3,76.0,30.02,ESE,107,1.0,2.0,82,0.00,,,0.00,0,weatherlink.com 1.10,2013-08-20 04:49:00,
2013-08-20 01:04:00,82.4,76.0,30.02,ESE,102,1.0,3.0,82,0.00,,,0.00,0,weatherlink.com 1.10,2013-08-20 05:04:00,
2013-08-20 01:19:00,82.6,77.0,30.01,ENE,76,2.0,4.0,82,0.00,,,0.00,0,weatherlink.com 1.10,2013-08-20 05:19:00,
2013-08-20 01:34:00,82.5,76.0,30.01,East,94,3.0,4.0,81,0.00,,,0.00,0,weatherlink.com 1.10,2013-08-20 05:34:00,
2013-08-20 01:49:00,82.5,76.0,30.00,East,92,3.0,5.0,80,0.00,,,0.00,0,weatherlink.com 1.10,2013-08-20 05:49:00,
2013-08-20 02:04:00,82.6,76.0,30.01,East,88,1.0,6.0,80,0.00,,,0.00,0,weatherlink.com 1.10,2013-08-20 06:04:00,
2013-08-20 02:19:00,82.6,76.0,30.00,ESE,113,2.0,6.0,80,0.00,,,0.00,0,weatherlink.com 1.10,2013-08-20 06:19:00,
2013-08-20 02:34:00,82.6,76.0,29.99,ENE,78,1.0,5.0,80,0.00,,,0.00,0,weatherlink.com 1.10,2013-08-20 06:34:00,
2013-08-20 02:49:00,82.5,75.0,29.99,East,86,2.0,4.0,79,0.00,,,0.00,0,weatherlink.com 1.10,2013-08-20 06:49:00,
2013-08-20 03:04:00,82.7,76.0,29.98,ENE,67,2.0,6.0,80,0.00,,,0.00,0,weatherlink.com 1.10,2013-08-20 07:04:00,
2013-08-20 03:19:00,81.9,75.0,29.99,SE,126,4.0,7.0,80,0.00,,,0.00,0,weatherlink.com 1.10,2013-08-20 07:19:00,
2013-08-20 03:34:00,81.7,76.0,29.99,East,89,4.0,7.0,82,0.00,,,0.00,0,weatherlink.com 1.10,2013-08-20 07:34:00,
2013-08-20 03:49:00,81.2,76.0,29.99,ENE,76,2.0,4.0,83,0.00,,,0.00,0,weatherlink.com 1.10,2013-08-20 07:49:00,
2013-08-20 04:04:00,77.9,73.0,29.99,SE,131,1.0,10.0,84,0.06,,,0.06,0,weatherlink.com 1.10,2013-08-20 08:04:00,
2013-08-20 04:19:00,77.5,74.0,29.99,ESE,120,0.0,3.0,88,0.12,,,0.12,0,weatherlink.com 1.10,2013-08-20 08:19:00,
2013-08-20 04:34:00,77.7,74.0,29.98,ESE,120,0.0,1.0,89,0.12,,,0.12,0,weatherlink.com 1.10,2013-08-20 08:34:00,
2013-08-20 04:49:00,78.1,75.0,29.98,ESE,120,2.0,2.0,90,0.12,,,0.12,0,weatherlink.com 1.10,2013-08-20 08:49:00,
2013-08-20 05:04:00,78.2,75.0,29.98,ESE,120,0.0,2.0,90,0.06,,,0.12,0,weatherlink.com 1.10,2013-08-20 09:04:00,
2013-08-20 05:19:00,78.3,76.0,29.97,ESE,120,0.0,1.0,91,0.00,,,0.12,0,weatherlink.com 1.10,2013-08-20 09:19:00,
2013-08-20 05:34:00,78.3,76.0,29.98,ESE,120,0.0,2.0,91,0.00,,,0.12,0,weatherlink.com 1.10,2013-08-20 09:34:00,
2013-08-20 05:49:00,78.1,75.0,29.98,ESE,121,0.0,2.0,91,0.00,,,0.12,0,weatherlink.com 1.10,2013-08-20 09:49:00,
2013-08-20 06:04:00,78.0,75.0,29.99,East,91,7.0,8.0,91,0.00,,,0.12,0,weatherlink.com 1.10,2013-08-20 10:04:00,
2013-08-20 06:19:00,77.5,74.0,29.98,ESE,123,0.0,3.0,89,0.00,,,0.12,0,weatherlink.com 1.10,2013-08-20 10:19:00,
2013-08-20 06:34:00,77.1,73.0,29.99,ESE,122,0.0,1.0,88,0.00,,,0.12,0,weatherlink.com 1.10,2013-08-20 10:34:00,
2013-08-20 06:49:00,76.8,73.0,30.00,ESE,122,0.0,1.0,88,0.00,,,0.12,0,weatherlink.com 1.10,2013-08-20 10:49:00,
2013-08-20 07:04:00,77.1,74.0,30.00,SE,125,0.0,3.0,89,0.00,,,0.12,11,weatherlink.com 1.10,2013-08-20 11:04:00,
2013-08-20 07:19:00,77.5,74.0,29.99,SE,125,0.0,0.0,89,0.00,,,0.12,19,weatherlink.com 1.10,2013-08-20 11:19:00,
2013-08-20 07:34:00,78.0,75.0,30.00,SE,125,0.0,0.0,89,0.00,,,0.12,26,weatherlink.com 1.10,2013-08-20 11:34:00,
2013-08-20 07:49:00,78.5,75.0,30.01,SE,125,0.0,0.0,90,0.00,,,0.12,39,weatherlink.com 1.10,2013-08-20 11:49:00,
2013-08-20 08:04:00,78.9,76.0,30.01,SE,125,0.0,0.0,90,0.00,,,0.12,77,weatherlink.com 1.10,2013-08-20 12:04:00,
2013-08-20 08:19:00,80.1,77.0,30.01,East,92,3.0,5.0,89,0.00,,,0.12,156,weatherlink.com 1.10,2013-08-20 12:19:00,
2013-08-20 08:34:00,82.1,77.0,30.01,ESE,105,3.0,5.0,85,0.00,,,0.12,193,weatherlink.com 1.10,2013-08-20 12:34:00,
2013-08-20 08:49:00,83.2,78.0,30.02,East,97,3.0,6.0,83,0.00,,,0.12,283,weatherlink.com 1.10,2013-08-20 12:49:00,
2013-08-20 09:05:00,83.9,78.0,30.02,ESE,103,4.0,8.0,81,0.00,,,0.12,411,weatherlink.com 1.10,2013-08-20 13:05:00,
2013-08-20 09:20:00,82.8,77.0,30.02,East,93,3.0,6.0,82,0.00,,,0.12,114,weatherlink.com 1.10,2013-08-20 13:20:00,
2013-08-20 09:35:00,83.4,78.0,30.03,ESE,108,6.0,10.0,83,0.00,,,0.12,202,weatherlink.com 1.10,2013-08-20 13:35:00,
2013-08-20 09:50:00,84.5,77.0,30.03,East,94,8.0,11.0,79,0.00,,,0.12,612,weatherlink.com 1.10,2013-08-20 13:50:00,
2013-08-20 10:05:00,85.3,77.0,30.03,SE,130,5.0,11.0,76,0.00,,,0.12,636,weatherlink.com 1.10,2013-08-20 14:05:00,
2013-08-20 10:20:00,84.5,76.0,30.03,SE,134,4.0,12.0,76,0.00,,,0.12,121,weatherlink.com 1.10,2013-08-20 14:20:00,
2013-08-20 10:35:00,85.9,77.0,30.03,SE,130,5.0,11.0,74,0.00,,,0.12,793,weatherlink.com 1.10,2013-08-20 14:35:00,
2013-08-20 10:50:00,85.9,77.0,30.03,SE,138,5.0,11.0,75,0.00,,,0.12,819,weatherlink.com 1.10,2013-08-20 14:50:00,
2013-08-20 11:05:00,85.9,78.0,30.04,East,96,4.0,10.0,76,0.00,,,0.12,779,weatherlink.com 1.10,2013-08-20 15:05:00,
2013-08-20 11:20:00,86.5,77.0,30.04,ESE,121,5.0,13.0,73,0.00,,,0.12,884,weatherlink.com 1.10,2013-08-20 15:20:00,
2013-08-20 11:35:00,86.9,78.0,30.04,ESE,112,8.0,13.0,75,0.00,,,0.12,889,weatherlink.com 1.10,2013-08-20 15:35:00,
2013-08-20 11:50:00,86.6,77.0,30.04,East,82,7.0,15.0,74,0.00,,,0.12,969,weatherlink.com 1.10,2013-08-20 15:50:00,
2013-08-20 12:05:00,86.6,77.0,30.04,East,86,5.0,12.0,72,0.00,,,0.12,942,weatherlink.com 1.10,2013-08-20 16:05:00,
2013-08-20 12:20:00,87.4,77.0,30.04,ENE,70,6.0,13.0,71,0.00,,,0.12,1005,weatherlink.com 1.10,2013-08-20 16:20:00,
2013-08-20 12:35:00,86.7,77.0,30.04,SE,126,4.0,11.0,73,0.00,,,0.12,1049,weatherlink.com 1.10,2013-08-20 16:35:00,
2013-08-20 12:50:00,86.5,77.0,30.04,SE,126,5.0,12.0,73,0.00,,,0.12,877,weatherlink.com 1.10,2013-08-20 16:50:00,
2013-08-20 13:05:00,87.7,77.0,30.04,East,100,8.0,12.0,71,0.00,,,0.12,1035,weatherlink.com 1.10,2013-08-20 17:05:00,
2013-08-20 13:20:00,87.8,77.0,30.04,ENE,74,7.0,11.0,71,0.00,,,0.12,972,weatherlink.com 1.10,2013-08-20 17:20:00,
2013-08-20 13:35:00,86.6,77.0,30.03,ENE,74,3.0,12.0,73,0.00,,,0.12,348,weatherlink.com 1.10,2013-08-20 17:35:00,
2013-08-20 13:50:00,86.1,77.0,30.03,ESE,105,9.0,12.0,75,0.00,,,0.12,540,weatherlink.com 1.10,2013-08-20 17:50:00,
2013-08-20 14:05:00,87.1,78.0,30.03,East,88,9.0,11.0,74,0.00,,,0.12,1090,weatherlink.com 1.10,2013-08-20 18:05:00,
2013-08-20 14:20:00,87.1,78.0,30.02,East,80,7.0,11.0,73,0.00,,,0.12,250,weatherlink.com 1.10,2013-08-20 18:20:00,
2013-08-20 14:35:00,86.9,79.0,30.02,ESE,123,7.0,12.0,76,0.00,,,0.12,1067,weatherlink.com 1.10,2013-08-20 18:35:00,
2013-08-20 14:50:00,87.5,78.0,30.01,SSE,163,8.0,14.0,73,0.00,,,0.12,888,weatherlink.com 1.10,2013-08-20 18:50:00,
2013-08-20 15:05:00,86.6,77.0,30.01,ESE,103,7.0,14.0,73,0.00,,,0.12,965,weatherlink.com 1.10,2013-08-20 19:05:00,
2013-08-20 15:20:00,87.4,77.0,30.00,ESE,111,4.0,11.0,72,0.00,,,0.12,858,weatherlink.com 1.10,2013-08-20 19:20:00,
2013-08-20 15:35:00,86.9,76.0,29.99,ESE,106,8.0,10.0,71,0.00,,,0.12,784,weatherlink.com 1.10,2013-08-20 19:35:00,
2013-08-20 15:50:00,86.5,77.0,29.99,East,95,7.0,11.0,74,0.00,,,0.12,573,weatherlink.com 1.10,2013-08-20 19:50:00,
2013-08-20 16:05:00,86.2,77.0,29.99,ENE,77,3.0,10.0,73,0.00,,,0.12,397,weatherlink.com 1.10,2013-08-20 20:05:00,
2013-08-20 16:20:00,85.8,76.0,29.99,East,86,7.0,12.0,73,0.00,,,0.12,350,weatherlink.com 1.10,2013-08-20 20:20:00,
2013-08-20 16:35:00,85.7,77.0,29.99,East,91,4.0,9.0,74,0.00,,,0.12,265,weatherlink.com 1.10,2013-08-20 20:35:00,
2013-08-20 16:50:00,85.6,76.0,30.00,East,80,3.0,11.0,74,0.00,,,0.12,325,weatherlink.com 1.10,2013-08-20 20:50:00,
2013-08-20 17:05:00,86.0,76.0,30.00,East,101,3.0,10.0,72,0.00,,,0.12,371,weatherlink.com 1.10,2013-08-20 21:05:00,
2013-08-20 17:20:00,85.6,77.0,29.99,SSE,150,3.0,10.0,75,0.00,,,0.12,355,weatherlink.com 1.10,2013-08-20 21:20:00,
2013-08-20 17:35:00,85.4,77.0,29.99,SE,126,7.0,10.0,76,0.00,,,0.12,218,weatherlink.com 1.10,2013-08-20 21:35:00,
2013-08-20 17:50:00,85.6,77.0,29.99,East,90,8.0,10.0,76,0.00,,,0.12,237,weatherlink.com 1.10,2013-08-20 21:50:00,
2013-08-20 18:05:00,85.5,76.0,29.99,East,94,3.0,8.0,74,0.00,,,0.12,144,weatherlink.com 1.10,2013-08-20 22:05:00,
2013-08-20 18:20:00,85.4,77.0,29.99,ESE,111,4.0,9.0,76,0.00,,,0.12,107,weatherlink.com 1.10,2013-08-20 22:20:00,
2013-08-20 18:35:00,85.0,77.0,29.99,SE,135,5.0,8.0,77,0.00,,,0.12,70,weatherlink.com 1.10,2013-08-20 22:35:00,
2013-08-20 18:50:00,84.8,77.0,29.99,ESE,115,2.0,9.0,78,0.00,,,0.12,74,weatherlink.com 1.10,2013-08-20 22:50:00,
2013-08-20 19:05:00,84.5,77.0,29.98,East,88,3.0,6.0,77,0.00,,,0.12,39,weatherlink.com 1.10,2013-08-20 23:05:00,
2013-08-20 19:20:00,84.5,77.0,29.99,East,86,3.0,7.0,77,0.00,,,0.12,32,weatherlink.com 1.10,2013-08-20 23:20:00,
2013-08-20 19:35:00,84.4,77.0,29.99,East,95,1.0,8.0,78,0.00,,,0.12,16,weatherlink.com 1.10,2013-08-20 23:35:00,
2013-08-20 19:50:00,84.2,77.0,29.99,East,96,3.0,7.0,78,0.00,,,0.12,0,weatherlink.com 1.10,2013-08-20 23:50:00,
2013-08-20 20:05:00,84.1,77.0,29.99,East,90,4.0,6.0,78,0.00,,,0.12,0,weatherlink.com 1.10,2013-08-21 00:05:00,
2013-08-20 20:20:00,83.9,76.0,30.00,East,101,4.0,7.0,78,0.00,,,0.12,0,weatherlink.com 1.10,2013-08-21 00:20:00,
2013-08-20 20:35:00,83.9,76.0,30.00,East,88,0.0,3.0,78,0.00,,,0.12,0,weatherlink.com 1.10,2013-08-21 00:35:00,
2013-08-20 20:50:00,83.9,77.0,30.01,ESE,110,1.0,4.0,79,0.00,,,0.12,0,weatherlink.com 1.10,2013-08-21 00:50:00,
2013-08-20 21:05:00,83.7,77.0,30.01,ENE,74,3.0,7.0,79,0.00,,,0.12,0,weatherlink.com 1.10,2013-08-21 01:05:00,
2013-08-20 21:20:00,83.8,77.0,30.02,ESE,103,2.0,4.0,79,0.00,,,0.12,0,weatherlink.com 1.10,2013-08-21 01:20:00,
2013-08-20 21:35:00,83.7,77.0,30.02,SE,130,1.0,3.0,80,0.00,,,0.12,0,weatherlink.com 1.10,2013-08-21 01:35:00,
2013-08-20 21:50:00,83.5,77.0,30.03,ESE,105,0.0,3.0,80,0.00,,,0.12,0,weatherlink.com 1.10,2013-08-21 01:50:00,
2013-08-20 22:05:00,83.4,77.0,30.04,East,90,0.0,2.0,81,0.00,,,0.12,0,weatherlink.com 1.10,2013-08-21 02:05:00,
2013-08-20 22:20:00,83.3,77.0,30.04,ENE,64,1.0,4.0,82,0.00,,,0.12,0,weatherlink.com 1.10,2013-08-21 02:20:00,
2013-08-20 22:35:00,82.9,77.0,30.04,NW,313,0.0,3.0,81,0.00,,,0.12,0,weatherlink.com 1.10,2013-08-21 02:35:00,
2013-08-20 22:50:00,82.2,76.0,30.04,NW,314,0.0,2.0,81,0.00,,,0.12,0,weatherlink.com 1.10,2013-08-21 02:50:00,
2013-08-20 23:05:00,81.8,76.0,30.05,NW,314,0.0,1.0,81,0.00,,,0.12,0,weatherlink.com 1.10,2013-08-21 03:05:00,
2013-08-20 23:21:00,81.7,76.0,30.05,ESE,111,0.0,2.0,83,0.00,,,0.12,0,weatherlink.com 1.10,2013-08-21 03:21:00,
2013-08-20 23:36:00,81.6,76.0,30.05,ESE,111,0.0,2.0,84,0.00,,,0.12,0,weatherlink.com 1.10,2013-08-21 03:36:00,
2013-08-20 23:51:00,81.6,77.0,30.05,East,92,0.0,2.0,86,0.00,,,0.12,0,weatherlink.com 1.10,2013-08-21 03:51:00,